createdAt,value
2023-03-31T00:02:13.343Z,97428.66
2023-03-31T00:04:46.091Z,97432.44
2023-03-31T00:07:14.687Z,97419.94
2023-03-31T00:09:46.040Z,97421.06
2023-03-31T00:12:16.693Z,97431.41
2023-03-31T00:14:43.694Z,97426.88
2023-03-31T00:17:10.735Z,97415.00
2023-03-31T00:19:37.763Z,97407.00
2023-03-31T00:22:05.295Z,97406.22
2023-03-31T00:24:33.067Z,97406.78
2023-03-31T00:27:04.250Z,97393.59
2023-03-31T00:29:31.437Z,97390.22
2023-03-31T00:31:59.774Z,97393.44
2023-03-31T00:34:27.020Z,97395.63
2023-03-31T00:36:56.562Z,97385.25
2023-03-31T00:39:24.684Z,97381.72
2023-03-31T00:41:51.701Z,97370.34
2023-03-31T00:44:24.508Z,97367.22
2023-03-31T00:47:15.702Z,97359.78
2023-03-31T00:49:56.991Z,97351.72
2023-03-31T00:52:26.386Z,97349.09
2023-03-31T00:55:02.147Z,97340.56
2023-03-31T00:57:33.231Z,97278.31
2023-03-31T01:00:17.324Z,97345.31
2023-03-31T01:02:52.558Z,97340.41
2023-03-31T01:05:24.533Z,97340.41
2023-03-31T01:07:52.985Z,97336.44
2023-03-31T01:10:19.786Z,97327.00
2023-03-31T01:12:52.627Z,97326.03
2023-03-31T01:15:19.356Z,97330.19
2023-03-31T01:17:47.644Z,97330.00
2023-03-31T01:20:36.168Z,97316.66
2023-03-31T01:23:19.297Z,97306.69
2023-03-31T01:26:06.996Z,97303.19
2023-03-31T01:28:40.487Z,97295.22
2023-03-31T01:31:28.443Z,97300.59
2023-03-31T01:34:31.104Z,97301.66
2023-03-31T01:37:56.501Z,97292.22
2023-03-31T01:40:55.789Z,97286.66
2023-03-31T01:43:57.040Z,97287.31
2023-03-31T01:46:36.153Z,97285.16
2023-03-31T01:49:35.330Z,97275.72
2023-03-31T01:52:10.746Z,97275.94
2023-03-31T01:54:45.546Z,97272.78
2023-03-31T01:57:23.003Z,97239.56
2023-03-31T02:00:01.341Z,97263.34
2023-03-31T02:02:32.471Z,97258.91
2023-03-31T02:05:03.334Z,97236.47
2023-03-31T02:07:35.981Z,97230.50
2023-03-31T02:10:07.917Z,97222.56
2023-03-31T02:12:38.463Z,97225.47
2023-03-31T02:15:09.413Z,97217.16
2023-03-31T02:17:40.684Z,97210.72
2023-03-31T02:20:15.260Z,97210.47
2023-03-31T02:22:46.777Z,97205.38
2023-03-31T02:25:18.808Z,97169.31
2023-03-31T02:27:56.261Z,97179.53
2023-03-31T02:30:24.254Z,97175.34
2023-03-31T02:32:51.028Z,97157.75
2023-03-31T02:35:20.410Z,97153.47
2023-03-31T02:37:50.048Z,97148.66
2023-03-31T02:40:22.655Z,97143.38
2023-03-31T02:42:49.644Z,97129.50
2023-03-31T02:45:38.020Z,97126.16
2023-03-31T02:48:08.453Z,97117.38
2023-03-31T02:50:50.575Z,97116.75
2023-03-31T02:53:42.892Z,97109.63
2023-03-31T02:56:46.238Z,97115.44
2023-03-31T02:59:34.382Z,97101.88
2023-03-31T03:02:08.924Z,97099.75
2023-03-31T03:05:03.949Z,97086.28
2023-03-31T03:08:07.121Z,97066.16
2023-03-31T03:11:02.475Z,97057.66
2023-03-31T03:13:43.051Z,97027.91
2023-03-31T03:16:37.191Z,97023.47
2023-03-31T03:19:06.841Z,97012.81
2023-03-31T03:21:33.872Z,96999.50
2023-03-31T03:24:01.637Z,96995.28
2023-03-31T03:26:28.712Z,96993.75
2023-03-31T03:28:56.659Z,96944.94
2023-03-31T03:31:26.172Z,96947.50
2023-03-31T03:33:54.271Z,96948.09
2023-03-31T03:36:21.139Z,96863.16
2023-03-31T03:38:47.647Z,96910.81
2023-03-31T03:41:14.131Z,96950.00
2023-03-31T03:43:40.878Z,96954.78
2023-03-31T03:46:07.717Z,96964.88
2023-03-31T03:48:35.294Z,96961.47
2023-03-31T03:51:02.223Z,96959.56
2023-03-31T03:53:28.797Z,96962.16
2023-03-31T03:55:57.090Z,96963.72
2023-03-31T03:58:23.616Z,96958.03
2023-03-31T04:00:50.454Z,96946.28
2023-03-31T04:03:18.233Z,96945.53
2023-03-31T04:05:45.480Z,96950.97
2023-03-31T04:08:12.005Z,96953.91
2023-03-31T04:10:43.606Z,96953.41
2023-03-31T04:13:10.138Z,96951.56
2023-03-31T04:15:36.703Z,96943.50
2023-03-31T04:18:03.524Z,96940.16
2023-03-31T04:20:30.922Z,96933.69
2023-03-31T04:22:57.704Z,96938.47
2023-03-31T04:25:24.298Z,96932.16
2023-03-31T04:27:54.676Z,96926.84
2023-03-31T04:30:30.674Z,96928.38
2023-03-31T04:33:02.957Z,96920.34
2023-03-31T04:35:42.835Z,96922.56
2023-03-31T04:38:09.925Z,96919.63
2023-03-31T04:40:36.501Z,96879.13
2023-03-31T04:43:03.056Z,96922.31
2023-03-31T04:45:29.810Z,96919.03
2023-03-31T04:47:57.410Z,96924.72
2023-03-31T04:50:24.091Z,96916.53
2023-03-31T04:52:50.702Z,96917.84
2023-03-31T04:55:17.540Z,96926.41
2023-03-31T04:57:46.549Z,96916.09
2023-03-31T05:00:13.833Z,96913.72
2023-03-31T05:02:40.443Z,96894.84
2023-03-31T05:05:07.169Z,96893.88
2023-03-31T05:07:33.689Z,96883.06
2023-03-31T05:10:00.327Z,96878.56
2023-03-31T05:12:26.836Z,96868.50
2023-03-31T05:14:53.242Z,96864.50
2023-03-31T05:17:21.595Z,96853.84
2023-03-31T05:19:47.985Z,96845.88
2023-03-31T05:22:14.475Z,96852.66
2023-03-31T05:24:41.152Z,96856.16
2023-03-31T05:27:07.569Z,96828.75
2023-03-31T05:29:34.128Z,96838.91
2023-03-31T05:32:01.997Z,96832.25
2023-03-31T05:34:28.705Z,96801.34
2023-03-31T05:36:55.915Z,96778.56
2023-03-31T05:39:22.508Z,96760.41
2023-03-31T05:41:49.152Z,96743.38
2023-03-31T05:44:15.992Z,96734.63
2023-03-31T05:46:42.863Z,96735.03
2023-03-31T05:49:10.012Z,96718.88
2023-03-31T05:51:36.503Z,96710.84
2023-03-31T05:54:03.232Z,96720.91
2023-03-31T05:56:30.884Z,96712.97
2023-03-31T05:59:00.443Z,96700.63
2023-03-31T06:01:28.134Z,96699.09
2023-03-31T06:03:54.862Z,96704.69
2023-03-31T06:06:21.551Z,96708.09
2023-03-31T06:08:49.221Z,96717.22
2023-03-31T06:11:19.325Z,96695.03
2023-03-31T06:13:46.533Z,96698.38
2023-03-31T06:16:15.003Z,96707.66
2023-03-31T06:18:41.869Z,96701.25
2023-03-31T06:21:11.395Z,96701.72
2023-03-31T06:23:37.964Z,96688.84
2023-03-31T06:26:08.890Z,96699.97
2023-03-31T06:28:36.218Z,96708.06
2023-03-31T06:31:05.139Z,96709.16
2023-03-31T06:33:33.174Z,96704.84
2023-03-31T06:36:01.604Z,96696.88
2023-03-31T06:38:28.452Z,96680.66
2023-03-31T06:40:55.258Z,96706.03
2023-03-31T06:43:22.130Z,96708.16
2023-03-31T06:46:04.443Z,96695.25
2023-03-31T06:48:31.408Z,96710.81
2023-03-31T06:51:04.014Z,96690.47
2023-03-31T06:53:31.155Z,96708.66
2023-03-31T06:55:58.453Z,96702.41
2023-03-31T06:58:25.044Z,96706.13
2023-03-31T07:00:52.760Z,96696.69
2023-03-31T07:03:25.070Z,96686.03
2023-03-31T07:05:53.511Z,96694.09
2023-03-31T07:08:21.468Z,96700.69
2023-03-31T07:10:50.564Z,96691.50
2023-03-31T07:13:18.014Z,96675.03
2023-03-31T07:15:47.927Z,96683.06
2023-03-31T07:18:15.958Z,96698.38
2023-03-31T07:20:43.974Z,96699.81
2023-03-31T07:23:10.879Z,96696.69
2023-03-31T07:25:37.324Z,96690.63
2023-03-31T07:28:05.207Z,96690.41
2023-03-31T07:30:32.671Z,96694.69
2023-03-31T07:32:59.817Z,96699.50
2023-03-31T07:35:26.454Z,96697.31
2023-03-31T07:37:53.879Z,96700.25
2023-03-31T07:40:24.128Z,96702.38
2023-03-31T07:42:52.290Z,96653.84
2023-03-31T07:45:21.419Z,96723.84
2023-03-31T07:47:48.766Z,96731.88
2023-03-31T07:50:16.507Z,96725.34
2023-03-31T07:52:46.828Z,96725.59
2023-03-31T07:55:14.448Z,96670.88
2023-03-31T07:57:41.839Z,96722.22
2023-03-31T08:00:12.115Z,96722.47
2023-03-31T08:02:39.814Z,96712.59
2023-03-31T08:05:07.598Z,96677.84
2023-03-31T08:07:38.894Z,96713.69
2023-03-31T08:10:07.886Z,96717.44
2023-03-31T08:12:34.690Z,96720.13
2023-03-31T08:15:01.361Z,96692.19
2023-03-31T08:17:28.190Z,96700.41
2023-03-31T08:19:54.670Z,96685.97
2023-03-31T08:22:23.545Z,96682.25
2023-03-31T08:24:50.168Z,96638.22
2023-03-31T08:27:17.087Z,96681.69
2023-03-31T08:29:43.943Z,96670.75
2023-03-31T08:32:12.144Z,96671.06
2023-03-31T08:34:38.811Z,96661.72
2023-03-31T08:37:06.201Z,96672.63
2023-03-31T08:39:39.034Z,96675.22
2023-03-31T08:42:35.851Z,96659.75
2023-03-31T08:45:33.978Z,96680.91
2023-03-31T08:48:25.685Z,96688.72
2023-03-31T08:51:08.473Z,96740.75
2023-03-31T08:53:42.532Z,96765.75
2023-03-31T08:56:20.217Z,96791.19
2023-03-31T08:58:49.903Z,96757.03
2023-03-31T09:01:19.769Z,96743.69
2023-03-31T09:03:53.591Z,96760.50
2023-03-31T09:06:33.799Z,96777.59
2023-03-31T09:09:03.389Z,96745.84
2023-03-31T09:11:39.829Z,96755.97
2023-03-31T09:14:39.928Z,96725.75
2023-03-31T09:17:29.270Z,96716.47
2023-03-31T09:20:08.867Z,96721.00
2023-03-31T09:22:40.621Z,96715.94
2023-03-31T09:25:19.232Z,96677.47
2023-03-31T09:27:47.626Z,96623.28
2023-03-31T09:30:23.160Z,96673.28
2023-03-31T09:32:53.563Z,96662.16
2023-03-31T09:35:26.172Z,96691.41
2023-03-31T09:37:54.290Z,96659.25
2023-03-31T09:40:24.458Z,96677.03
2023-03-31T09:43:28.067Z,96709.50
2023-03-31T09:48:35.142Z,96666.44
2023-03-31T09:51:06.623Z,96654.13
2023-03-31T09:53:40.750Z,96648.00
2023-03-31T09:56:09.393Z,96635.41
2023-03-31T09:58:44.190Z,96632.28
2023-03-31T10:01:12.998Z,96633.88
2023-03-31T10:03:51.339Z,96622.97
2023-03-31T10:06:18.488Z,96604.56
2023-03-31T10:08:59.611Z,96612.63
2023-03-31T10:11:29.095Z,96603.53
2023-03-31T10:14:15.688Z,96619.03
2023-03-31T10:16:55.233Z,96603.56
2023-03-31T10:19:24.610Z,96600.06
2023-03-31T10:21:59.878Z,96597.69
2023-03-31T10:24:35.823Z,96589.59
2023-03-31T10:27:02.823Z,96585.00
2023-03-31T10:29:32.603Z,96576.75
2023-03-31T10:32:05.017Z,96584.56
2023-03-31T10:34:32.173Z,96604.59
2023-03-31T10:36:59.750Z,96590.47
2023-03-31T10:39:33.163Z,96613.34
2023-03-31T10:42:00.900Z,96592.19
2023-03-31T10:44:32.041Z,96596.47
2023-03-31T10:47:22.429Z,96589.00
2023-03-31T10:49:55.948Z,96593.22
2023-03-31T10:52:27.514Z,96594.34
2023-03-31T10:54:59.883Z,96590.09
2023-03-31T10:57:55.499Z,96582.13
2023-03-31T11:00:28.550Z,96588.31
2023-03-31T11:03:18.079Z,96573.13
2023-03-31T11:05:44.831Z,96560.31
2023-03-31T11:08:28.831Z,96548.00
2023-03-31T11:11:22.311Z,96540.16
2023-03-31T11:13:59.632Z,96541.97
2023-03-31T11:16:35.318Z,96545.91
2023-03-31T11:19:29.358Z,96547.78
2023-03-31T11:22:10.253Z,96538.19
2023-03-31T11:25:03.163Z,96547.81
2023-03-31T11:27:39.111Z,96563.44
2023-03-31T11:30:22.453Z,96570.97
2023-03-31T11:32:58.062Z,96576.88
2023-03-31T11:35:56.920Z,96569.41
2023-03-31T11:38:44.675Z,96572.06
2023-03-31T11:41:18.382Z,96598.22
2023-03-31T11:43:56.409Z,96597.69
2023-03-31T11:46:38.957Z,96607.03
2023-03-31T11:49:52.346Z,96599.81
2023-03-31T11:52:25.448Z,96594.19
2023-03-31T11:54:59.067Z,96538.16
2023-03-31T11:57:33.388Z,96550.66
2023-03-31T12:00:13.686Z,96569.03
2023-03-31T12:02:50.922Z,96579.34
2023-03-31T12:05:18.809Z,96581.78
2023-03-31T12:08:02.893Z,96572.16
2023-03-31T12:10:41.706Z,96578.59
2023-03-31T12:13:20.466Z,96571.38
2023-03-31T12:16:01.229Z,96560.16
2023-03-31T12:18:36.454Z,96577.28
2023-03-31T12:21:05.517Z,96577.31
2023-03-31T12:23:40.216Z,96583.72
2023-03-31T12:26:25.006Z,96564.53
2023-03-31T12:28:58.341Z,96574.16
2023-03-31T12:31:28.052Z,96564.31
2023-03-31T12:34:01.879Z,96551.47
2023-03-31T12:36:40.012Z,96548.53
2023-03-31T12:39:23.098Z,96535.72
2023-03-31T12:42:20.281Z,96551.94
2023-03-31T12:45:18.124Z,96544.44
2023-03-31T12:48:07.120Z,96536.13
2023-03-31T12:51:10.983Z,96520.88
2023-03-31T12:54:00.555Z,96527.88
2023-03-31T12:56:27.618Z,96523.91
2023-03-31T12:58:54.133Z,96512.38
2023-03-31T13:01:24.546Z,96516.84
2023-03-31T13:04:19.922Z,96504.88
2023-03-31T13:06:52.795Z,96503.28
2023-03-31T13:09:19.140Z,96495.59
2023-03-31T13:11:50.180Z,96506.75
2023-03-31T13:14:23.086Z,96501.97
2023-03-31T13:16:53.495Z,96512.72
2023-03-31T13:19:32.338Z,96507.09
2023-03-31T13:22:01.256Z,96512.13
2023-03-31T13:24:31.059Z,96510.31
2023-03-31T13:27:00.964Z,96542.13
2023-03-31T13:29:44.503Z,96537.38
2023-03-31T13:32:25.542Z,96543.53
2023-03-31T13:34:58.531Z,96531.50
2023-03-31T13:37:48.474Z,96496.03
2023-03-31T13:40:29.440Z,96510.41
2023-03-31T13:43:09.133Z,96499.75
2023-03-31T13:45:52.552Z,96503.75
2023-03-31T13:48:23.825Z,96508.84
2023-03-31T13:50:56.081Z,96497.91
2023-03-31T13:53:47.351Z,96495.72
2023-03-31T13:56:45.040Z,96492.78
2023-03-31T13:59:31.860Z,96477.28
2023-03-31T14:02:23.634Z,96472.91
2023-03-31T14:04:59.485Z,96465.97
2023-03-31T14:07:36.841Z,96481.16
2023-03-31T14:10:04.713Z,96482.53
2023-03-31T14:12:34.020Z,96484.69
2023-03-31T14:15:00.764Z,96480.13
2023-03-31T14:17:30.358Z,96478.47
2023-03-31T14:20:15.617Z,96468.34
2023-03-31T14:22:56.415Z,96457.38
2023-03-31T14:25:44.049Z,96435.78
2023-03-31T14:28:26.484Z,96447.63
2023-03-31T14:31:13.685Z,96479.69
2023-03-31T14:33:57.705Z,96472.53
2023-03-31T14:36:38.907Z,96508.31
2023-03-31T14:39:09.845Z,96521.91
2023-03-31T14:41:38.037Z,96498.44
2023-03-31T14:44:14.756Z,96493.09
2023-03-31T14:46:41.456Z,96485.34
2023-03-31T14:49:34.399Z,96484.53
2023-03-31T14:52:03.341Z,96492.59
2023-03-31T14:54:34.706Z,96476.56
2023-03-31T14:57:02.271Z,96479.00
2023-03-31T14:59:33.739Z,96441.38
2023-03-31T15:02:03.502Z,96469.38
2023-03-31T15:04:42.469Z,96484.56
2023-03-31T15:07:10.071Z,96462.47
2023-03-31T15:09:36.747Z,96473.13
2023-03-31T15:12:07.419Z,96475.00
2023-03-31T15:14:40.601Z,96475.78
2023-03-31T15:17:18.178Z,96478.69
2023-03-31T15:19:48.591Z,96471.50
2023-03-31T15:22:18.768Z,96460.28
2023-03-31T15:24:46.578Z,96457.91
2023-03-31T15:27:33.963Z,96459.50
2023-03-31T15:30:08.918Z,96453.13
2023-03-31T15:32:37.992Z,96449.38
2023-03-31T15:35:18.760Z,96453.13
2023-03-31T15:37:50.018Z,96447.50
2023-03-31T15:40:28.848Z,96450.97
2023-03-31T15:45:31.073Z,96454.69
2023-03-31T15:48:02.810Z,96458.44
2023-03-31T15:50:29.796Z,96427.78
2023-03-31T15:53:01.474Z,96453.66
2023-03-31T15:55:29.741Z,96473.38
2023-03-31T15:57:58.809Z,96479.47
2023-03-31T16:00:31.602Z,96468.81
2023-03-31T16:03:00.169Z,96477.09
2023-03-31T16:08:43.862Z,96466.69
2023-03-31T16:11:15.471Z,96442.72
2023-03-31T16:13:34.737Z,96466.44
2023-03-31T16:13:48.729Z,96470.47
2023-03-31T16:16:18.923Z,96477.34
2023-03-31T16:18:51.028Z,96477.66
2023-03-31T16:21:24.946Z,96474.44
2023-03-31T16:23:58.233Z,96478.16
2023-03-31T16:26:27.770Z,96478.69
2023-03-31T16:28:57.850Z,96480.03
2023-03-31T16:31:34.778Z,96479.50
2023-03-31T16:34:03.616Z,96480.56
2023-03-31T16:36:33.365Z,96487.22
2023-03-31T16:39:01.905Z,96477.66
2023-03-31T16:41:29.320Z,96484.53
2023-03-31T16:43:55.775Z,96472.84
2023-03-31T16:46:23.326Z,96485.84
2023-03-31T16:48:51.808Z,96490.94
2023-03-31T16:51:19.170Z,96484.00
2023-03-31T16:53:47.340Z,96485.06
2023-03-31T16:56:15.745Z,96490.94
2023-03-31T16:58:43.637Z,96481.31
2023-03-31T17:01:13.114Z,96488.78
2023-03-31T17:03:42.375Z,96488.78
2023-03-31T17:06:13.288Z,96491.16
2023-03-31T17:08:40.665Z,96488.47
2023-03-31T17:11:11.589Z,96485.78
2023-03-31T17:13:39.595Z,96497.25
2023-03-31T17:16:18.666Z,96498.34
2023-03-31T17:18:49.010Z,96503.38
2023-03-31T17:21:19.143Z,96528.06
2023-03-31T17:23:48.825Z,96539.22
2023-03-31T17:26:17.668Z,96536.06
2023-03-31T17:28:44.335Z,96540.34
2023-03-31T17:31:16.413Z,96538.72
2023-03-31T17:33:46.022Z,96539.13
2023-03-31T17:36:12.703Z,96542.69
2023-03-31T17:38:39.739Z,96535.19
2023-03-31T17:41:08.912Z,96538.13
2023-03-31T17:43:36.220Z,96529.06
2023-03-31T17:46:05.327Z,96526.94
2023-03-31T17:48:34.410Z,96522.16
2023-03-31T17:51:10.367Z,96525.34
2023-03-31T17:53:36.871Z,96527.22
2023-03-31T17:56:04.634Z,96491.16
2023-03-31T17:58:34.643Z,96527.22
2023-03-31T18:01:04.835Z,96520.53
2023-03-31T18:03:31.722Z,96485.75
2023-03-31T18:06:06.639Z,96519.47
2023-03-31T18:08:34.738Z,96526.31
2023-03-31T18:11:03.223Z,96511.88
2023-03-31T18:13:33.017Z,96527.59
2023-03-31T18:16:01.426Z,96534.13
2023-03-31T18:18:29.063Z,96540.25
2023-03-31T18:20:56.220Z,96541.59
2023-03-31T18:23:23.633Z,96547.13
2023-03-31T18:25:50.365Z,96541.97
2023-03-31T18:28:18.757Z,96521.38
2023-03-31T18:30:49.461Z,96538.19
2023-03-31T18:33:16.465Z,96551.72
2023-03-31T18:35:44.369Z,96552.72
2023-03-31T18:38:11.120Z,96559.91
2023-03-31T18:40:37.819Z,96574.00
2023-03-31T18:43:06.159Z,96528.03
2023-03-31T18:45:33.660Z,96542.13
2023-03-31T18:48:00.713Z,96550.78
2023-03-31T18:50:27.271Z,96552.41
2023-03-31T18:52:54.703Z,96555.25
2023-03-31T18:55:22.144Z,96560.38
2023-03-31T18:57:53.048Z,96563.72
2023-03-31T19:00:20.601Z,96566.78
2023-03-31T19:02:47.549Z,96568.97
2023-03-31T19:05:16.209Z,96543.09
2023-03-31T19:07:43.153Z,96568.66
2023-03-31T19:10:10.148Z,96567.72
2023-03-31T19:12:36.668Z,96580.66
2023-03-31T19:15:03.678Z,96573.22
2023-03-31T19:17:30.249Z,96570.09
2023-03-31T19:19:56.669Z,96583.00
2023-03-31T19:22:23.316Z,96577.47
2023-03-31T19:24:49.766Z,96583.72
2023-03-31T19:27:16.236Z,96587.41
2023-03-31T19:29:42.735Z,96571.38
2023-03-31T19:32:10.538Z,96578.84
2023-03-31T19:34:37.073Z,96576.22
2023-03-31T19:37:05.469Z,96572.47
2023-03-31T19:39:32.263Z,96565.84
2023-03-31T19:41:58.801Z,96550.28
2023-03-31T19:44:25.420Z,96561.28
2023-03-31T19:46:51.864Z,96567.69
2023-03-31T19:49:20.236Z,96568.25
2023-03-31T19:51:47.237Z,96571.16
2023-03-31T19:54:13.761Z,96559.81
2023-03-31T19:56:40.222Z,96575.56
2023-03-31T19:59:06.909Z,96571.31
2023-03-31T20:01:33.971Z,96570.00
2023-03-31T20:04:00.853Z,96569.41
2023-03-31T20:06:31.859Z,96530.69
2023-03-31T20:09:00.429Z,96564.59
2023-03-31T20:11:28.974Z,96579.56
2023-03-31T20:13:56.642Z,96576.63
2023-03-31T20:16:25.568Z,96532.22
2023-03-31T20:18:58.249Z,96571.66
2023-03-31T20:21:27.622Z,96575.97
2023-03-31T20:23:54.839Z,96582.72
2023-03-31T20:26:24.973Z,96574.31
2023-03-31T20:28:54.970Z,96571.22
2023-03-31T20:31:24.063Z,96532.25
2023-03-31T20:33:52.116Z,96570.47
2023-03-31T20:36:21.842Z,96563.53
2023-03-31T20:38:53.197Z,96575.19
2023-03-31T20:41:22.767Z,96575.56
2023-03-31T20:43:50.866Z,96558.75
2023-03-31T20:46:18.558Z,96577.56
2023-03-31T20:48:47.987Z,96577.06
2023-03-31T20:51:17.691Z,96574.16
2023-03-31T20:53:46.674Z,96582.88
2023-03-31T20:56:18.299Z,96577.50
2023-03-31T20:58:46.177Z,96581.25
2023-03-31T21:01:13.940Z,96585.97
2023-03-31T21:03:41.355Z,96532.09
2023-03-31T21:06:11.934Z,96596.09
2023-03-31T21:08:39.685Z,96586.59
2023-03-31T21:11:06.652Z,96589.38
2023-03-31T21:13:33.308Z,96588.56
2023-03-31T21:16:01.210Z,96580.38
2023-03-31T21:18:29.694Z,96593.41
2023-03-31T21:21:05.147Z,96589.66
2023-03-31T21:23:31.939Z,96582.16
2023-03-31T21:26:03.091Z,96593.44
2023-03-31T21:28:32.314Z,96592.75
2023-03-31T21:31:18.222Z,96604.34
2023-03-31T21:33:47.261Z,96599.72
2023-03-31T21:36:16.897Z,96595.56
2023-03-31T21:38:44.547Z,96595.63
2023-03-31T21:41:13.792Z,96605.16
2023-03-31T21:43:41.005Z,96614.81
2023-03-31T21:46:09.106Z,96613.28
2023-03-31T21:48:35.792Z,96611.00
2023-03-31T21:51:03.021Z,96611.56
2023-03-31T21:53:31.156Z,96621.13
2023-03-31T21:55:58.610Z,96622.50
2023-03-31T21:58:28.447Z,96619.56
2023-03-31T22:00:57.855Z,96613.47
2023-03-31T22:03:28.398Z,96626.50
2023-03-31T22:05:56.049Z,96605.16
2023-03-31T22:08:22.924Z,96610.63
2023-03-31T22:10:51.776Z,96601.84
2023-03-31T22:13:20.651Z,96624.47
2023-03-31T22:15:47.362Z,96625.59
2023-03-31T22:18:14.659Z,96609.09
2023-03-31T22:20:41.224Z,96619.72
2023-03-31T22:23:07.728Z,96624.78
2023-03-31T22:25:34.569Z,96612.84
2023-03-31T22:28:03.066Z,96618.38
2023-03-31T22:30:31.625Z,96620.50
2023-03-31T22:32:58.185Z,96617.56
2023-03-31T22:35:24.797Z,96610.13
2023-03-31T22:37:53.837Z,96611.44
2023-03-31T22:40:20.612Z,96623.16
2023-03-31T22:42:48.771Z,96607.16
2023-03-31T22:45:16.436Z,96618.53
2023-03-31T22:47:43.358Z,96613.97
2023-03-31T22:50:11.241Z,96615.66
2023-03-31T22:52:37.895Z,96616.94
2023-03-31T22:55:05.487Z,96634.47
2023-03-31T22:57:32.377Z,96625.16
2023-03-31T22:59:59.243Z,96624.66
2023-03-31T23:02:26.209Z,96615.41
2023-03-31T23:04:53.100Z,96635.59
2023-03-31T23:07:21.839Z,96620.63
2023-03-31T23:09:48.952Z,96630.53
2023-03-31T23:12:15.659Z,96642.69
2023-03-31T23:14:42.176Z,96639.91
2023-03-31T23:17:08.687Z,96637.19
2023-03-31T23:19:35.450Z,96635.41
2023-03-31T23:22:02.626Z,96636.38
2023-03-31T23:24:30.251Z,96626.41
2023-03-31T23:26:57.381Z,96641.75
2023-03-31T23:29:24.085Z,96641.44
2023-03-31T23:31:50.954Z,96619.84
2023-03-31T23:34:17.585Z,96640.66
2023-03-31T23:36:44.194Z,96638.94
2023-03-31T23:39:11.893Z,96627.44
2023-03-31T23:41:38.522Z,96632.06
2023-03-31T23:44:06.159Z,96631.94
2023-03-31T23:46:33.763Z,96635.97
2023-03-31T23:49:02.948Z,96630.34
2023-03-31T23:51:29.542Z,96629.00
2023-03-31T23:53:57.307Z,96637.19
2023-03-31T23:56:24.843Z,96641.47
2023-03-31T23:58:51.318Z,96641.19
